createdAt,value
2018-05-01T00:00:13.977Z,999.99
2018-05-01T00:01:13.986Z,999.99
2018-05-01T00:03:06.820Z,999.96
2018-05-01T00:04:06.774Z,1000.03
2018-05-01T00:06:00.743Z,1000.03
2018-05-01T00:07:00.138Z,1000.05
2018-05-01T00:08:53.748Z,1000.03
2018-05-01T00:09:53.500Z,1000.00
2018-05-01T00:11:47.119Z,1000.01
2018-05-01T00:12:46.850Z,1000.01
2018-05-01T00:14:40.212Z,1000.00
2018-05-01T00:15:40.190Z,1000.04
2018-05-01T00:17:33.585Z,1000.02
2018-05-01T00:18:34.135Z,1000.06
2018-05-01T00:20:26.945Z,1000.04
2018-05-01T00:21:27.486Z,999.98
2018-05-01T00:23:20.569Z,1000.08
2018-05-01T00:24:20.275Z,1000.11
2018-05-01T00:26:13.727Z,1000.06
2018-05-01T00:27:14.199Z,1000.07
2018-05-01T00:29:07.885Z,1000.08
2018-05-01T00:30:06.778Z,1000.09
2018-05-01T00:32:00.176Z,1000.08
2018-05-01T00:33:00.331Z,1000.05
2018-05-01T00:34:54.819Z,1000.10
2018-05-01T00:35:55.060Z,1000.07
2018-05-01T00:37:47.466Z,1000.09
2018-05-01T00:38:47.366Z,1000.14
2018-05-01T00:40:41.820Z,1000.14
2018-05-01T00:41:41.284Z,1000.20
2018-05-01T00:43:34.374Z,1000.19
2018-05-01T00:44:34.081Z,1000.14
2018-05-01T00:46:28.695Z,1000.21
2018-05-01T00:47:27.443Z,1000.23
2018-05-01T00:49:21.090Z,1000.28
2018-05-01T00:50:20.805Z,1000.25
2018-05-01T00:52:14.450Z,1000.25
2018-05-01T00:53:14.197Z,1000.31
2018-05-01T00:55:07.789Z,1000.29
2018-05-01T00:56:10.098Z,1000.24
2018-05-01T00:58:00.998Z,1000.26
2018-05-01T00:59:00.408Z,1000.32
2018-05-01T01:00:54.314Z,1000.31
2018-05-01T01:01:53.733Z,1000.33
2018-05-01T01:03:47.141Z,1000.36
2018-05-01T01:04:47.680Z,1000.32
2018-05-01T01:06:40.528Z,1000.38
2018-05-01T01:07:40.465Z,1000.37
2018-05-01T01:09:34.105Z,1000.36
2018-05-01T01:10:33.815Z,1000.36
2018-05-01T01:12:28.371Z,1000.41
2018-05-01T01:13:28.205Z,1000.38
2018-05-01T01:15:21.787Z,1000.38
2018-05-01T01:16:21.534Z,1000.44
2018-05-01T01:18:15.154Z,1000.46
2018-05-01T01:19:14.891Z,1000.45
2018-05-01T01:21:08.036Z,1000.45
2018-05-01T01:22:07.775Z,1000.47
2018-05-01T01:24:01.412Z,1000.52
2018-05-01T01:25:01.692Z,1000.54
2018-05-01T01:26:54.249Z,1000.53
2018-05-01T01:27:53.992Z,1000.52
2018-05-01T01:29:47.655Z,1000.47
2018-05-01T01:30:47.327Z,1000.54
2018-05-01T01:32:40.755Z,1000.58
2018-05-01T01:33:40.703Z,1000.60
2018-05-01T01:35:34.186Z,1000.60
2018-05-01T01:36:34.065Z,1000.60
2018-05-01T01:38:27.457Z,1000.60
2018-05-01T01:39:27.428Z,1000.64
2018-05-01T01:41:21.826Z,1000.67
2018-05-01T01:42:21.774Z,1000.68
2018-05-01T01:44:15.965Z,1000.75
2018-05-01T01:45:15.183Z,1000.68
2018-05-01T01:47:08.579Z,1000.77
2018-05-01T01:48:08.518Z,1000.81
2018-05-01T01:50:02.226Z,1000.80
2018-05-01T01:51:01.910Z,1000.83
2018-05-01T01:52:55.589Z,1000.85
2018-05-01T01:53:55.251Z,1000.85
2018-05-01T01:55:48.312Z,1000.86
2018-05-01T01:56:48.116Z,1000.88
2018-05-01T01:58:41.524Z,1000.88
2018-05-01T01:59:41.481Z,1000.90
2018-05-01T02:01:34.402Z,1000.93
2018-05-01T02:02:34.336Z,1000.91
2018-05-01T02:04:28.016Z,1000.97
2018-05-01T02:05:27.707Z,1000.99
2018-05-01T02:07:22.360Z,1001.04
2018-05-01T02:08:22.636Z,1001.02
2018-05-01T02:10:15.706Z,1001.04
2018-05-01T02:11:15.407Z,1001.04
2018-05-01T02:13:08.807Z,1001.10
2018-05-01T02:14:08.763Z,1001.10
2018-05-01T02:16:02.486Z,1001.13
2018-05-01T02:17:02.148Z,1001.14
2018-05-01T02:18:58.286Z,1001.22
2018-05-01T02:19:58.005Z,1001.20
2018-05-01T02:21:51.264Z,1001.18
2018-05-01T02:22:50.892Z,1001.20
2018-05-01T02:24:46.002Z,1001.29
2018-05-01T02:25:46.797Z,1001.26
2018-05-01T02:27:37.868Z,1001.29
2018-05-01T02:28:37.581Z,1001.27
2018-05-01T02:30:31.959Z,1001.28
2018-05-01T02:31:32.514Z,1001.30
2018-05-01T02:33:26.394Z,1001.36
2018-05-01T02:35:39.997Z,1001.32
2018-05-01T02:36:40.227Z,1001.35
2018-05-01T02:38:33.119Z,1001.34
2018-05-01T02:39:33.031Z,1001.38
2018-05-01T02:41:26.399Z,1001.32
2018-05-01T02:43:39.354Z,1001.40
2018-05-01T02:44:39.258Z,1001.39
2018-05-01T02:46:34.370Z,1001.42
2018-05-01T02:47:33.621Z,1001.40
2018-05-01T02:49:27.011Z,1001.37
2018-05-01T02:50:26.975Z,1001.37
2018-05-01T02:52:20.738Z,1001.41
2018-05-01T02:53:19.840Z,1001.45
2018-05-01T02:55:13.571Z,1001.46
2018-05-01T02:56:13.185Z,1001.43
2018-05-01T02:58:06.563Z,1001.45
2018-05-01T02:59:06.543Z,1001.51
2018-05-01T03:01:00.110Z,1001.50
2018-05-01T03:02:00.475Z,1001.51
2018-05-01T03:03:53.487Z,1001.50
2018-05-01T03:04:53.259Z,1001.54
2018-05-01T03:06:46.669Z,1001.54
2018-05-01T03:07:46.611Z,1001.57
2018-05-01T03:09:40.551Z,1001.54
2018-05-01T03:10:40.545Z,1001.63
2018-05-01T03:12:33.668Z,1001.53
2018-05-01T03:13:33.325Z,1001.57
2018-05-01T03:15:29.504Z,1001.61
2018-05-01T03:16:30.268Z,1001.61
2018-05-01T03:18:21.089Z,1001.68
2018-05-01T03:19:21.038Z,1001.63
2018-05-01T03:21:15.198Z,1001.72
2018-05-01T03:22:14.397Z,1001.75
2018-05-01T03:24:07.804Z,1001.74
2018-05-01T03:25:07.760Z,1001.76
2018-05-01T03:27:01.191Z,1001.82
2018-05-01T03:28:01.157Z,1001.82
2018-05-01T03:29:54.774Z,1001.89
2018-05-01T03:30:54.524Z,1001.88
2018-05-01T03:32:47.940Z,1001.91
2018-05-01T03:33:47.871Z,1001.89
2018-05-01T03:35:41.424Z,1001.91
2018-05-01T03:36:41.256Z,1001.92
2018-05-01T03:38:34.622Z,1002.00
2018-05-01T03:39:35.166Z,1002.00
2018-05-01T03:41:30.752Z,1002.04
2018-05-01T03:42:30.505Z,1002.03
2018-05-01T03:44:24.271Z,1002.05
2018-05-01T03:45:24.435Z,1002.08
2018-05-01T03:47:18.537Z,1002.09
2018-05-01T03:48:18.189Z,1002.13
2018-05-01T03:50:11.894Z,1002.11
2018-05-01T03:51:11.556Z,1002.13
2018-05-01T03:53:04.958Z,1002.12
2018-05-01T03:54:04.922Z,1002.15
2018-05-01T03:55:58.385Z,1002.16
2018-05-01T03:56:58.289Z,1002.17
2018-05-01T03:58:51.863Z,1002.10
2018-05-01T03:59:51.643Z,1002.15
2018-05-01T04:01:45.090Z,1002.17
2018-05-01T04:02:45.011Z,1002.15
2018-05-01T04:04:38.442Z,1002.22
2018-05-01T04:05:38.379Z,1002.23
2018-05-01T04:07:32.820Z,1002.29
2018-05-01T04:08:31.775Z,1002.35
2018-05-01T04:10:25.113Z,1002.42
2018-05-01T04:11:25.098Z,1002.40
2018-05-01T04:13:19.115Z,1002.42
2018-05-01T04:14:18.443Z,1002.42
2018-05-01T04:16:12.080Z,1002.44
2018-05-01T04:17:11.824Z,1002.47
2018-05-01T04:19:05.208Z,1002.56
2018-05-01T04:20:05.180Z,1002.57
2018-05-01T04:21:59.093Z,1002.59
2018-05-01T04:22:58.378Z,1002.58
2018-05-01T04:24:51.934Z,1002.54
2018-05-01T04:25:51.719Z,1002.63
2018-05-01T04:27:44.681Z,1002.66
2018-05-01T04:28:45.121Z,1002.61
2018-05-01T04:30:38.181Z,1002.60
2018-05-01T04:31:37.975Z,1002.67
2018-05-01T04:33:32.164Z,1002.66
2018-05-01T04:34:30.795Z,1002.70
2018-05-01T04:36:27.522Z,1002.70
2018-05-01T04:37:26.664Z,1002.69
2018-05-01T04:39:21.064Z,1002.73
2018-05-01T04:40:21.033Z,1002.74
2018-05-01T04:42:14.721Z,1002.73
2018-05-01T04:43:14.383Z,1002.82
2018-05-01T04:45:14.788Z,1002.77
2018-05-01T04:46:14.741Z,1002.75
2018-05-01T04:48:08.373Z,1002.82
2018-05-01T04:49:08.106Z,1002.83
2018-05-01T04:51:01.525Z,1002.88
2018-05-01T04:52:01.448Z,1002.87
2018-05-01T04:53:54.885Z,1002.92
2018-05-01T04:54:54.864Z,1002.90
2018-05-01T04:56:48.316Z,1002.91
2018-05-01T04:57:48.192Z,1002.94
2018-05-01T04:59:43.174Z,1002.96
2018-05-01T05:00:42.579Z,1003.00
2018-05-01T05:02:39.490Z,1003.03
2018-05-01T05:03:38.475Z,1003.09
2018-05-01T05:05:29.688Z,1003.06
2018-05-01T05:06:29.274Z,1003.08
2018-05-01T05:08:23.014Z,1003.07
2018-05-01T05:09:22.773Z,1003.10
2018-05-01T05:11:15.615Z,1003.21
2018-05-01T05:12:15.045Z,1003.21
2018-05-01T05:14:08.454Z,1003.28
2018-05-01T05:15:10.951Z,1003.26
2018-05-01T05:17:01.836Z,1003.32
2018-05-01T05:18:02.326Z,1003.39
2018-05-01T05:19:55.135Z,1003.35
2018-05-01T05:20:54.808Z,1003.44
2018-05-01T05:22:48.362Z,1003.43
2018-05-01T05:23:48.058Z,1003.45
2018-05-01T05:25:42.522Z,1003.46
2018-05-01T05:26:42.414Z,1003.43
2018-05-01T05:28:36.104Z,1003.51
2018-05-01T05:29:35.763Z,1003.50
2018-05-01T05:31:29.373Z,1003.59
2018-05-01T05:33:59.126Z,1003.62
2018-05-01T05:34:58.484Z,1003.61
2018-05-01T05:37:06.150Z,1003.68
2018-05-01T05:38:05.372Z,1003.66
2018-05-01T05:39:58.859Z,1003.69
2018-05-01T05:40:58.552Z,1003.71
2018-05-01T05:42:51.867Z,1003.75
2018-05-01T05:43:51.494Z,1003.75
2018-05-01T05:45:58.934Z,1003.84
2018-05-01T05:46:58.889Z,1003.81
2018-05-01T05:48:52.741Z,1003.86
2018-05-01T05:49:52.817Z,1003.85
2018-05-01T05:51:45.342Z,1003.80
2018-05-01T05:52:44.888Z,1003.84
2018-05-01T05:54:57.755Z,1003.86
2018-05-01T05:55:57.401Z,1003.88
2018-05-01T05:57:51.238Z,1003.86
2018-05-01T05:58:50.857Z,1003.83
2018-05-01T06:00:44.461Z,1003.88
2018-05-01T06:01:44.059Z,1003.91
2018-05-01T06:03:37.870Z,1003.85
2018-05-01T06:04:37.444Z,1003.85
2018-05-01T06:06:30.882Z,1003.97
2018-05-01T06:07:30.781Z,1003.87
2018-05-01T06:09:25.859Z,1003.90
2018-05-01T06:10:26.736Z,1003.88
2018-05-01T06:12:16.875Z,1003.89
2018-05-01T06:13:16.802Z,1003.89
2018-05-01T06:15:11.944Z,1003.97
2018-05-01T06:16:10.318Z,1003.89
2018-05-01T06:18:13.794Z,1003.96
2018-05-01T06:19:03.015Z,1003.98
2018-05-01T06:20:56.388Z,1003.97
2018-05-01T06:21:56.441Z,1003.96
2018-05-01T06:23:50.490Z,1003.87
2018-05-01T06:24:49.751Z,1003.95
2018-05-01T06:26:43.539Z,1004.04
2018-05-01T06:27:43.123Z,1004.07
2018-05-01T06:29:36.573Z,1004.14
2018-05-01T06:30:36.484Z,1004.14
2018-05-01T06:32:30.277Z,1004.12
2018-05-01T06:33:32.419Z,1004.21
2018-05-01T06:35:24.425Z,1004.18
2018-05-01T06:36:23.312Z,1004.24
2018-05-01T06:38:18.320Z,1004.36
2018-05-01T06:39:17.283Z,1004.27
2018-05-01T06:41:10.175Z,1004.33
2018-05-01T06:42:10.090Z,1004.36
2018-05-01T06:44:03.327Z,1004.36
2018-05-01T06:45:02.974Z,1004.43
2018-05-01T06:46:57.424Z,1004.47
2018-05-01T06:47:57.337Z,1004.52
2018-05-01T06:49:50.712Z,1004.47
2018-05-01T06:50:50.693Z,1004.50
2018-05-01T06:52:43.620Z,1004.42
2018-05-01T06:53:43.540Z,1004.52
2018-05-01T06:55:37.055Z,1004.54
2018-05-01T06:56:36.896Z,1004.57
2018-05-01T06:58:29.864Z,1004.63
2018-05-01T06:59:29.769Z,1004.61
2018-05-01T07:01:23.330Z,1004.62
2018-05-01T07:02:23.216Z,1004.59
2018-05-01T07:04:16.193Z,1004.58
2018-05-01T07:05:16.080Z,1004.66
2018-05-01T07:07:09.531Z,1004.63
2018-05-01T07:08:08.966Z,1004.68
2018-05-01T07:10:02.086Z,1004.76
2018-05-01T07:11:01.802Z,1004.68
2018-05-01T07:12:58.757Z,1004.71
2018-05-01T07:13:54.691Z,1004.75
2018-05-01T07:15:48.078Z,1004.72
2018-05-01T07:16:48.392Z,1004.70
2018-05-01T07:18:42.059Z,1004.69
2018-05-01T07:19:41.637Z,1004.80
2018-05-01T07:21:35.335Z,1004.85
2018-05-01T07:22:34.790Z,1004.90
2018-05-01T07:24:27.683Z,1005.00
2018-05-01T07:25:27.631Z,1004.95
2018-05-01T07:27:20.764Z,1004.99
2018-05-01T07:28:21.083Z,1004.99
2018-05-01T07:30:13.624Z,1005.01
2018-05-01T07:31:14.449Z,1005.01
2018-05-01T07:33:07.288Z,1005.05
2018-05-01T07:34:06.280Z,1005.03
2018-05-01T07:35:59.624Z,1005.08
2018-05-01T07:36:59.604Z,1005.08
2018-05-01T07:38:52.502Z,1005.09
2018-05-01T07:39:52.582Z,1005.11
2018-05-01T07:41:45.885Z,1005.14
2018-05-01T07:42:45.851Z,1005.11
2018-05-01T07:44:39.330Z,1005.18
2018-05-01T07:45:39.233Z,1005.12
2018-05-01T07:47:33.904Z,1005.09
2018-05-01T07:48:32.131Z,1005.12
2018-05-01T07:50:24.983Z,1005.20
2018-05-01T07:51:24.984Z,1005.20
2018-05-01T07:53:19.519Z,1005.17
2018-05-01T07:54:19.381Z,1005.19
2018-05-01T07:56:12.911Z,1005.23
2018-05-01T07:57:12.764Z,1005.16
2018-05-01T07:59:05.624Z,1005.28
2018-05-01T08:00:05.580Z,1005.22
2018-05-01T08:01:58.618Z,1005.24
2018-05-01T08:02:58.451Z,1005.21
2018-05-01T08:04:51.353Z,1005.20
2018-05-01T08:05:51.339Z,1005.15
2018-05-01T08:07:44.299Z,1005.30
2018-05-01T08:08:44.764Z,1005.20
2018-05-01T08:10:37.839Z,1005.21
2018-05-01T08:11:37.618Z,1005.21
2018-05-01T08:13:30.988Z,1005.27
2018-05-01T08:14:30.971Z,1005.30
2018-05-01T08:16:23.999Z,1005.37
2018-05-01T08:17:23.832Z,1005.33
2018-05-01T08:19:17.287Z,1005.24
2018-05-01T08:20:17.205Z,1005.32
2018-05-01T08:22:10.657Z,1005.32
2018-05-01T08:23:10.073Z,1005.38
2018-05-01T08:25:03.621Z,1005.40
2018-05-01T08:26:03.452Z,1005.34
2018-05-01T08:27:56.915Z,1005.45
2018-05-01T08:28:56.811Z,1005.47
2018-05-01T08:30:50.217Z,1005.52
2018-05-01T08:31:50.218Z,1005.51
2018-05-01T08:33:44.127Z,1005.55
2018-05-01T08:34:43.762Z,1005.62
2018-05-01T08:36:36.685Z,1005.58
2018-05-01T08:37:36.718Z,1005.49
2018-05-01T08:39:29.535Z,1005.57
2018-05-01T08:40:29.499Z,1005.63
2018-05-01T08:42:22.394Z,1005.70
2018-05-01T08:43:22.363Z,1005.59
2018-05-01T08:45:15.322Z,1005.63
2018-05-01T08:46:15.232Z,1005.66
2018-05-01T08:48:08.129Z,1005.73
2018-05-01T08:49:08.112Z,1005.75
2018-05-01T08:51:01.017Z,1005.66
2018-05-01T08:52:00.988Z,1005.78
2018-05-01T08:53:53.871Z,1005.73
2018-05-01T08:54:53.854Z,1005.74
2018-05-01T08:56:47.240Z,1005.79
2018-05-01T08:57:47.205Z,1005.78
2018-05-01T08:59:40.111Z,1005.80
2018-05-01T09:00:40.085Z,1005.80
2018-05-01T09:02:33.019Z,1005.81
2018-05-01T09:03:32.951Z,1005.85
2018-05-01T09:05:41.884Z,1005.82
2018-05-01T09:06:27.348Z,1005.88
2018-05-01T09:08:21.888Z,1005.84
2018-05-01T09:09:21.739Z,1005.88
2018-05-01T09:11:15.245Z,1005.94
2018-05-01T09:12:15.097Z,1005.88
2018-05-01T09:14:08.016Z,1005.98
2018-05-01T09:15:08.012Z,1006.03
2018-05-01T09:17:01.039Z,1006.00
2018-05-01T09:18:00.988Z,1006.01
2018-05-01T09:19:54.505Z,1005.99
2018-05-01T09:20:54.225Z,1005.99
2018-05-01T09:22:47.126Z,1005.93
2018-05-01T09:23:47.103Z,1005.98
2018-05-01T09:25:40.019Z,1006.00
2018-05-01T09:26:39.990Z,1005.99
2018-05-01T09:28:33.067Z,1005.99
2018-05-01T09:29:32.846Z,1006.05
2018-05-01T09:31:25.763Z,1006.01
2018-05-01T09:32:25.739Z,1005.97
2018-05-01T09:34:18.618Z,1006.04
2018-05-01T09:35:18.607Z,1006.03
2018-05-01T09:37:12.176Z,1006.09
2018-05-01T09:38:11.460Z,1006.07
2018-05-01T09:40:04.431Z,1006.06
2018-05-01T09:41:04.435Z,1006.08
2018-05-01T09:42:57.510Z,1006.01
2018-05-01T09:43:57.241Z,1006.20
2018-05-01T09:45:50.775Z,1006.16
2018-05-01T09:46:50.648Z,1006.13
2018-05-01T09:48:44.050Z,1006.20
2018-05-01T09:49:43.514Z,1006.17
2018-05-01T09:51:38.165Z,1006.18
2018-05-01T09:52:36.866Z,1006.15
2018-05-01T09:54:30.439Z,1006.18
2018-05-01T09:55:30.230Z,1006.17
2018-05-01T09:57:23.722Z,1006.18
2018-05-01T09:58:23.683Z,1006.14
2018-05-01T10:00:16.143Z,1006.17
2018-05-01T10:01:16.000Z,1006.16
2018-05-01T10:03:12.390Z,1006.31
2018-05-01T10:04:12.079Z,1006.27
2018-05-01T10:06:58.005Z,1006.33
2018-05-01T10:07:59.296Z,1006.21
2018-05-01T10:09:50.910Z,1006.27
2018-05-01T10:10:50.996Z,1006.29
2018-05-01T10:12:45.025Z,1006.36
2018-05-01T10:13:43.611Z,1006.39
2018-05-01T10:15:37.922Z,1006.32
2018-05-01T10:16:38.113Z,1006.29
2018-05-01T10:18:31.560Z,1006.30
2018-05-01T10:19:31.511Z,1006.33
2018-05-01T10:21:25.619Z,1006.45
2018-05-01T10:22:23.471Z,1006.50
2018-05-01T10:24:19.473Z,1006.47
2018-05-01T10:25:19.413Z,1006.44
2018-05-01T10:27:12.839Z,1006.41
2018-05-01T10:28:13.467Z,1006.23
2018-05-01T10:30:05.567Z,1006.36
2018-05-01T10:31:05.525Z,1006.30
2018-05-01T10:32:58.833Z,1006.38
2018-05-01T10:33:58.933Z,1006.39
2018-05-01T10:35:52.204Z,1006.37
2018-05-01T10:36:52.175Z,1006.36
2018-05-01T10:38:45.713Z,1006.39
2018-05-01T10:39:45.536Z,1006.36
2018-05-01T10:41:39.042Z,1006.38
2018-05-01T10:42:38.961Z,1006.42
2018-05-01T10:44:32.718Z,1006.43
2018-05-01T10:45:32.341Z,1006.44
2018-05-01T10:47:26.857Z,1006.45
2018-05-01T10:48:25.730Z,1006.49
2018-05-01T10:50:19.636Z,1006.44
2018-05-01T10:51:20.008Z,1006.50
2018-05-01T10:53:12.620Z,1006.55
2018-05-01T10:54:12.271Z,1006.55
2018-05-01T10:56:05.211Z,1006.49
2018-05-01T10:57:08.070Z,1006.50
2018-05-01T10:58:59.791Z,1006.50
2018-05-01T10:59:59.419Z,1006.43
2018-05-01T11:01:52.220Z,1006.61
2018-05-01T11:02:52.173Z,1006.56
2018-05-01T11:05:37.735Z,1006.57
2018-05-01T11:06:38.285Z,1006.50
2018-05-01T11:08:30.403Z,1006.54
2018-05-01T11:09:29.824Z,1006.51
2018-05-01T11:12:19.465Z,1006.58
2018-05-01T11:13:16.666Z,1006.56
2018-05-01T11:15:10.274Z,1006.49
2018-05-01T11:16:11.196Z,1006.51
2018-05-01T11:18:05.413Z,1006.59
2018-05-01T11:19:03.165Z,1006.59
2018-05-01T11:20:56.866Z,1006.56
2018-05-01T11:21:56.555Z,1006.63
2018-05-01T11:23:50.154Z,1006.59
2018-05-01T11:24:50.181Z,1006.60
2018-05-01T11:26:43.926Z,1006.58
2018-05-01T11:27:43.559Z,1006.57
2018-05-01T11:29:36.530Z,1006.58
2018-05-01T11:30:36.156Z,1006.62
2018-05-01T11:32:29.848Z,1006.64
2018-05-01T11:33:30.110Z,1006.64
2018-05-01T11:35:23.547Z,1006.64
2018-05-01T11:36:23.969Z,1006.69
2018-05-01T11:38:16.334Z,1006.68
2018-05-01T11:39:16.598Z,1006.74
2018-05-01T11:41:09.920Z,1006.64
2018-05-01T11:42:09.687Z,1006.65
2018-05-01T11:44:03.291Z,1006.64
2018-05-01T11:45:03.045Z,1006.63
2018-05-01T11:46:56.688Z,1006.70
2018-05-01T11:47:56.375Z,1006.64
2018-05-01T11:49:49.715Z,1006.61
2018-05-01T11:50:51.220Z,1006.62
2018-05-01T11:52:43.033Z,1006.62
2018-05-01T11:54:57.493Z,1006.65
2018-05-01T11:55:55.791Z,1006.62
2018-05-01T11:57:49.666Z,1006.67
2018-05-01T11:58:49.162Z,1006.72
2018-05-01T12:00:43.014Z,1006.75
2018-05-01T12:01:42.999Z,1006.70
2018-05-01T12:03:48.429Z,1006.70
2018-05-01T12:04:47.267Z,1006.70
2018-05-01T12:06:41.064Z,1006.65
2018-05-01T12:07:42.501Z,1006.69
2018-05-01T12:09:34.407Z,1006.68
2018-05-01T12:10:33.985Z,1006.65
2018-05-01T12:12:27.547Z,1006.64
2018-05-01T12:13:27.158Z,1006.62
2018-05-01T12:15:21.017Z,1006.58
2018-05-01T12:16:20.976Z,1006.57
2018-05-01T12:18:15.381Z,1006.56
2018-05-01T12:19:14.268Z,1006.55
2018-05-01T12:21:07.755Z,1006.61
2018-05-01T12:22:07.709Z,1006.57
2018-05-01T12:24:01.185Z,1006.60
2018-05-01T12:25:01.256Z,1006.58
2018-05-01T12:26:54.491Z,1006.64
2018-05-01T12:27:54.154Z,1006.72
2018-05-01T12:29:46.943Z,1006.64
2018-05-01T12:30:46.906Z,1006.62
2018-05-01T12:32:41.217Z,1006.63
2018-05-01T12:33:40.464Z,1006.67
2018-05-01T12:35:33.861Z,1006.68
2018-05-01T12:36:33.871Z,1006.65
2018-05-01T12:38:27.871Z,1006.58
2018-05-01T12:39:28.128Z,1006.61
2018-05-01T12:41:21.524Z,1006.60
2018-05-01T12:42:21.228Z,1006.65
2018-05-01T12:44:14.888Z,1006.66
2018-05-01T12:45:14.866Z,1006.66
2018-05-01T12:47:07.981Z,1006.69
2018-05-01T12:48:08.245Z,1006.75
2018-05-01T12:50:01.628Z,1006.77
2018-05-01T12:51:01.712Z,1006.77
2018-05-01T12:52:54.606Z,1006.71
2018-05-01T12:53:54.549Z,1006.79
2018-05-01T12:55:47.927Z,1006.79
2018-05-01T12:56:47.913Z,1006.84
2018-05-01T12:58:40.947Z,1006.86
2018-05-01T12:59:41.473Z,1006.79
2018-05-01T13:01:34.709Z,1006.76
2018-05-01T13:02:34.284Z,1006.80
2018-05-01T13:04:28.115Z,1006.85
2018-05-01T13:05:27.761Z,1006.86
2018-05-01T13:07:21.457Z,1006.85
2018-05-01T13:08:21.482Z,1006.88
2018-05-01T13:10:17.437Z,1006.95
2018-05-01T13:11:17.345Z,1006.94
2018-05-01T13:13:11.307Z,1006.88
2018-05-01T13:14:10.740Z,1006.94
2018-05-01T13:16:04.202Z,1006.94
2018-05-01T13:17:04.071Z,1007.01
2018-05-01T13:18:59.032Z,1007.09
2018-05-01T13:19:57.654Z,1007.03
2018-05-01T13:21:50.868Z,1007.06
2018-05-01T13:22:50.877Z,1007.05
2018-05-01T13:24:43.870Z,1007.02
2018-05-01T13:25:43.472Z,1006.98
2018-05-01T13:27:36.812Z,1006.92
2018-05-01T13:28:37.349Z,1007.02
2018-05-01T13:30:30.596Z,1006.99
2018-05-01T13:31:30.564Z,1007.03
2018-05-01T13:33:24.012Z,1007.01
2018-05-01T13:34:24.323Z,1007.05
2018-05-01T13:36:17.384Z,1007.01
2018-05-01T13:37:17.074Z,1006.96
2018-05-01T13:39:13.218Z,1007.01
2018-05-01T13:40:13.167Z,1006.98
2018-05-01T13:42:05.714Z,1007.02
2018-05-01T13:43:05.696Z,1006.99
2018-05-01T13:45:03.422Z,1007.07
2018-05-01T13:45:59.035Z,1007.05
2018-05-01T13:47:52.796Z,1007.06
2018-05-01T13:48:52.537Z,1007.04
2018-05-01T13:50:45.434Z,1007.05
2018-05-01T13:51:45.840Z,1007.07
2018-05-01T13:53:38.741Z,1007.07
2018-05-01T13:54:38.646Z,1007.04
2018-05-01T13:56:32.420Z,1007.05
2018-05-01T13:57:32.592Z,1007.04
2018-05-01T13:59:25.312Z,1007.04
2018-05-01T14:00:24.946Z,1006.97
2018-05-01T14:02:18.016Z,1007.03
2018-05-01T14:03:17.794Z,1006.99
2018-05-01T14:05:10.681Z,1007.03
2018-05-01T14:06:10.931Z,1007.06
2018-05-01T14:08:03.784Z,1007.00
2018-05-01T14:09:03.801Z,1007.04
2018-05-01T14:10:58.803Z,1007.02
2018-05-01T14:11:56.924Z,1007.08
2018-05-01T14:13:50.025Z,1007.06
2018-05-01T14:14:50.344Z,1007.10
2018-05-01T14:16:43.455Z,1007.05
2018-05-01T14:17:43.132Z,1007.00
2018-05-01T14:19:36.788Z,1006.99
2018-05-01T14:20:36.509Z,1007.02
2018-05-01T14:22:29.690Z,1006.94
2018-05-01T14:23:29.452Z,1006.90
2018-05-01T14:25:23.115Z,1006.98
2018-05-01T14:26:22.755Z,1006.99
2018-05-01T14:28:15.979Z,1007.04
2018-05-01T14:29:15.928Z,1007.05
2018-05-01T14:31:09.319Z,1007.02
2018-05-01T14:32:09.000Z,1007.05
2018-05-01T14:34:02.671Z,1007.00
2018-05-01T14:35:02.411Z,1007.06
2018-05-01T14:36:57.603Z,1007.02
2018-05-01T14:37:55.747Z,1007.05
2018-05-01T14:39:50.294Z,1007.05
2018-05-01T14:40:49.996Z,1007.03
2018-05-01T14:42:44.365Z,1006.98
2018-05-01T14:43:42.462Z,1007.00
2018-05-01T14:45:36.132Z,1007.04
2018-05-01T14:46:35.841Z,1007.03
2018-05-01T14:48:29.989Z,1007.10
2018-05-01T14:49:29.447Z,1007.07
2018-05-01T14:51:22.955Z,1007.06
2018-05-01T14:52:22.587Z,1007.05
2018-05-01T14:54:16.258Z,1007.04
2018-05-01T14:55:16.105Z,1007.03
2018-05-01T14:57:09.609Z,1007.01
2018-05-01T14:58:09.326Z,1006.97
2018-05-01T15:00:02.225Z,1006.97
2018-05-01T15:01:02.207Z,1006.97
2018-05-01T15:02:55.604Z,1006.99
2018-05-01T15:03:55.561Z,1006.92
2018-05-01T15:05:49.668Z,1006.88
2018-05-01T15:06:48.984Z,1006.88
2018-05-01T15:08:42.117Z,1006.90
2018-05-01T15:09:41.862Z,1006.95
2018-05-01T15:11:35.326Z,1006.97
2018-05-01T15:12:34.746Z,1006.94
2018-05-01T15:14:27.678Z,1007.01
2018-05-01T15:15:27.618Z,1007.03
2018-05-01T15:17:20.619Z,1006.99
2018-05-01T15:18:20.486Z,1007.01
2018-05-01T15:20:13.385Z,1007.02
2018-05-01T15:21:13.360Z,1007.02
2018-05-01T15:23:06.270Z,1007.04
2018-05-01T15:24:06.241Z,1007.05
2018-05-01T15:25:59.153Z,1007.10
2018-05-01T15:26:59.106Z,1007.13
2018-05-01T15:28:52.022Z,1007.12
2018-05-01T15:29:52.006Z,1007.10
2018-05-01T15:31:44.890Z,1007.11
2018-05-01T15:32:44.877Z,1007.12
2018-05-01T15:34:38.258Z,1007.10
2018-05-01T15:35:38.219Z,1007.12
2018-05-01T15:37:31.272Z,1007.12
2018-05-01T15:38:31.100Z,1007.09
2018-05-01T15:40:24.510Z,1007.11
2018-05-01T15:41:24.497Z,1007.09
2018-05-01T15:43:17.565Z,1007.06
2018-05-01T15:44:17.351Z,1007.09
2018-05-01T15:46:10.257Z,1007.06
2018-05-01T15:47:10.232Z,1007.00
2018-05-01T15:49:03.127Z,1006.97
2018-05-01T15:50:03.093Z,1006.98
2018-05-01T15:51:56.028Z,1007.03
2018-05-01T15:52:55.962Z,1007.01
2018-05-01T15:54:48.951Z,1007.05
2018-05-01T15:55:48.842Z,1007.03
2018-05-01T15:57:41.742Z,1007.02
2018-05-01T15:58:41.721Z,1007.03
2018-05-01T16:00:35.187Z,1007.01
2018-05-01T16:01:35.093Z,1006.98
2018-05-01T16:03:28.005Z,1006.99
2018-05-01T16:04:27.967Z,1007.00
2018-05-01T16:06:20.848Z,1006.97
2018-05-01T16:07:20.834Z,1007.02
2018-05-01T16:09:13.724Z,1006.95
2018-05-01T16:10:13.696Z,1006.91
2018-05-01T16:12:07.353Z,1006.95
2018-05-01T16:13:07.633Z,1006.95
2018-05-01T16:15:00.700Z,1006.93
2018-05-01T16:16:00.429Z,1006.92
2018-05-01T16:17:53.419Z,1006.90
2018-05-01T16:18:53.303Z,1006.92
2018-05-01T16:20:46.736Z,1006.98
2018-05-01T16:21:46.688Z,1006.96
2018-05-01T16:23:39.661Z,1006.99
2018-05-01T16:24:39.543Z,1007.00
2018-05-01T16:26:32.440Z,1007.00
2018-05-01T16:27:32.413Z,1006.99
2018-05-01T16:29:25.320Z,1006.99
2018-05-01T16:30:25.282Z,1007.02
2018-05-01T16:32:18.832Z,1007.02
2018-05-01T16:33:18.644Z,1007.04
2018-05-01T16:35:11.578Z,1007.07
2018-05-01T16:36:11.519Z,1007.10
2018-05-01T16:38:04.465Z,1007.09
2018-05-01T16:39:04.393Z,1007.06
2018-05-01T16:40:57.300Z,1007.11
2018-05-01T16:41:57.259Z,1007.09
2018-05-01T16:43:50.154Z,1007.11
2018-05-01T16:44:50.129Z,1007.13
2018-05-01T16:46:43.602Z,1007.14
2018-05-01T16:47:43.508Z,1007.13
2018-05-01T16:49:36.995Z,1007.14
2018-05-01T16:50:36.890Z,1007.12
2018-05-01T16:52:29.890Z,1007.12
2018-05-01T16:53:29.762Z,1007.11
2018-05-01T16:55:22.703Z,1007.14
2018-05-01T16:56:22.642Z,1007.13
2018-05-01T16:58:15.559Z,1007.16
2018-05-01T16:59:15.540Z,1007.17
2018-05-01T17:01:08.433Z,1007.09
2018-05-01T17:02:08.404Z,1007.07
2018-05-01T17:04:01.305Z,1007.08
2018-05-01T17:05:01.272Z,1007.09
2018-05-01T17:06:54.256Z,1007.10
2018-05-01T17:07:54.153Z,1007.09
2018-05-01T17:09:47.131Z,1007.06
2018-05-01T17:10:47.035Z,1007.10
2018-05-01T17:12:40.012Z,1007.11
2018-05-01T17:13:39.913Z,1007.11
2018-05-01T17:15:32.794Z,1007.11
2018-05-01T17:16:32.763Z,1007.09
2018-05-01T17:18:27.028Z,1007.11
2018-05-01T17:19:26.712Z,1007.09
2018-05-01T17:21:19.196Z,1007.09
2018-05-01T17:22:19.017Z,1007.11
2018-05-01T17:24:12.819Z,1007.05
2018-05-01T17:25:13.023Z,1007.08
2018-05-01T17:27:07.209Z,1007.05
2018-05-01T17:28:06.724Z,1007.08
2018-05-01T17:29:59.215Z,1007.07
2018-05-01T17:30:58.623Z,1007.05
2018-05-01T17:32:52.058Z,1007.00
2018-05-01T17:33:52.020Z,1007.01